createdAt,value
2022-08-02T00:00:01.157Z,36.66
2022-08-02T00:01:29.600Z,36.54
2022-08-02T00:02:38.343Z,36.59
2022-08-02T00:03:48.278Z,36.57
2022-08-02T00:04:57.229Z,36.45
2022-08-02T00:06:08.178Z,36.44
2022-08-02T00:07:19.075Z,36.43
2022-08-02T00:08:27.998Z,36.26
2022-08-02T00:09:35.713Z,36.26
2022-08-02T00:10:44.148Z,36.19
2022-08-02T00:11:53.925Z,36.16
2022-08-02T00:13:05.464Z,36.12
2022-08-02T00:14:17.741Z,36.12
2022-08-02T00:15:27.330Z,36.18
2022-08-02T00:16:37.707Z,36.16
2022-08-02T00:17:50.075Z,36.04
2022-08-02T00:18:58.479Z,36.16
2022-08-02T00:20:08.820Z,36.29
2022-08-02T00:21:19.298Z,36.28
2022-08-02T00:22:28.474Z,36.35
2022-08-02T00:24:05.033Z,36.34
2022-08-02T00:25:07.844Z,36.41
2022-08-02T00:26:15.784Z,36.30
2022-08-02T00:27:27.098Z,36.23
2022-08-02T00:28:34.994Z,36.28
2022-08-02T00:29:52.517Z,36.18
2022-08-02T00:31:02.939Z,36.08
2022-08-02T00:32:13.660Z,36.04
2022-08-02T00:34:26.754Z,36.02
2022-08-02T00:34:56.294Z,35.93
2022-08-02T00:36:08.083Z,35.79
2022-08-02T00:37:18.371Z,35.66
2022-08-02T00:38:26.638Z,35.66
2022-08-02T00:39:38.388Z,35.69
2022-08-02T00:40:56.543Z,35.70
2022-08-02T00:42:11.302Z,35.71
2022-08-02T00:43:20.079Z,35.73
2022-08-02T00:44:29.376Z,35.69
2022-08-02T00:46:03.521Z,35.71
2022-08-02T00:47:09.084Z,35.69
2022-08-02T00:48:18.619Z,35.40
2022-08-02T00:49:28.040Z,35.26
2022-08-02T00:50:36.770Z,35.14
2022-08-02T00:51:47.990Z,35.06
2022-08-02T00:52:57.519Z,34.86
2022-08-02T00:54:05.919Z,34.56
2022-08-02T00:55:14.532Z,34.20
2022-08-02T00:56:27.751Z,33.85
2022-08-02T00:57:36.495Z,33.58
2022-08-02T00:58:46.317Z,33.44
2022-08-02T00:59:58.498Z,33.39
2022-08-02T01:01:06.450Z,33.39
2022-08-02T01:02:17.952Z,33.58
2022-08-02T01:03:26.657Z,33.72
2022-08-02T01:04:34.937Z,34.00
2022-08-02T01:05:55.880Z,34.13
2022-08-02T01:07:17.393Z,34.15
2022-08-02T01:08:29.411Z,33.91
2022-08-02T01:09:40.753Z,33.82
2022-08-02T01:10:50.647Z,33.92
2022-08-02T01:12:02.553Z,34.03
2022-08-02T01:13:14.168Z,34.10
2022-08-02T01:14:25.914Z,34.12
2022-08-02T01:15:36.307Z,33.98
2022-08-02T01:17:01.957Z,33.89
2022-08-02T01:18:15.901Z,33.77
2022-08-02T01:19:39.853Z,33.65
2022-08-02T01:21:09.355Z,33.46
2022-08-02T01:22:34.706Z,33.39
2022-08-02T01:24:12.720Z,33.51
2022-08-02T01:25:50.834Z,33.53
2022-08-02T01:27:06.229Z,33.69
2022-08-02T01:28:32.893Z,33.81
2022-08-02T01:29:44.019Z,34.14
2022-08-02T01:30:53.434Z,34.02
2022-08-02T01:32:24.414Z,33.87
2022-08-02T01:33:38.175Z,33.71
2022-08-02T01:35:19.946Z,33.54
2022-08-02T01:36:29.555Z,33.15
2022-08-02T01:37:48.852Z,32.80
2022-08-02T01:38:58.024Z,32.49
2022-08-02T01:40:13.685Z,32.24
2022-08-02T01:41:23.204Z,32.07
2022-08-02T01:42:32.032Z,31.98
2022-08-02T01:43:41.213Z,31.82
2022-08-02T01:44:52.323Z,31.66
2022-08-02T01:46:00.960Z,31.50
2022-08-02T01:47:10.469Z,31.45
2022-08-02T01:48:18.583Z,31.29
2022-08-02T01:49:28.082Z,31.22
2022-08-02T01:50:37.105Z,31.18
2022-08-02T01:52:07.274Z,31.13
2022-08-02T01:53:19.237Z,30.87
2022-08-02T01:54:28.995Z,30.76
2022-08-02T01:55:58.439Z,30.71
2022-08-02T01:57:08.810Z,30.74
2022-08-02T01:58:21.493Z,30.80
2022-08-02T01:59:33.776Z,30.98
2022-08-02T02:00:46.399Z,31.14
2022-08-02T02:01:56.937Z,31.21
2022-08-02T02:03:05.426Z,31.27
2022-08-02T02:04:14.018Z,31.35
2022-08-02T02:05:26.010Z,31.44
2022-08-02T02:06:34.477Z,31.47
2022-08-02T02:07:42.908Z,31.54
2022-08-02T02:08:52.157Z,31.58
2022-08-02T02:10:01.935Z,31.47
2022-08-02T02:12:13.152Z,31.45
2022-08-02T02:12:42.016Z,31.36
2022-08-02T02:13:51.240Z,31.34
2022-08-02T02:14:59.840Z,31.25
2022-08-02T02:16:10.050Z,31.06
2022-08-02T02:17:57.086Z,30.86
2022-08-02T02:18:57.212Z,30.66
2022-08-02T02:20:09.352Z,30.54
2022-08-02T02:21:19.119Z,30.39
2022-08-02T02:22:28.848Z,30.23
2022-08-02T02:23:37.164Z,30.14
2022-08-02T02:24:48.568Z,30.07
2022-08-02T02:25:58.288Z,30.05
2022-08-02T02:27:11.552Z,29.94
2022-08-02T02:28:35.495Z,29.81
2022-08-02T02:29:48.684Z,29.63
2022-08-02T02:31:01.414Z,29.51
2022-08-02T02:32:17.182Z,29.43
2022-08-02T02:33:29.592Z,29.32
2022-08-02T02:34:41.608Z,29.20
2022-08-02T02:35:51.929Z,29.10
2022-08-02T02:37:01.952Z,29.00
2022-08-02T02:38:13.964Z,28.92
2022-08-02T02:39:28.768Z,28.85
2022-08-02T02:40:36.910Z,28.77
2022-08-02T02:41:48.391Z,28.68
2022-08-02T02:42:58.925Z,28.58
2022-08-02T02:44:07.208Z,28.52
2022-08-02T02:45:16.212Z,28.47
2022-08-02T02:46:26.842Z,28.39
2022-08-02T02:47:40.889Z,28.34
2022-08-02T02:48:56.248Z,28.28
2022-08-02T02:50:06.764Z,28.22
2022-08-02T02:51:14.859Z,28.16
2022-08-02T02:52:24.107Z,28.11
2022-08-02T02:54:30.715Z,28.06
2022-08-02T02:55:05.849Z,27.99
2022-08-02T02:56:17.129Z,27.94
2022-08-02T02:57:26.779Z,27.89
2022-08-02T02:58:34.848Z,27.83
2022-08-02T02:59:49.769Z,27.77
2022-08-02T03:01:22.098Z,27.73
2022-08-02T03:02:51.602Z,27.66
2022-08-02T03:04:08.705Z,27.63
2022-08-02T03:05:19.776Z,27.60
2022-08-02T03:06:31.322Z,27.55
2022-08-02T03:07:39.612Z,27.52
2022-08-02T03:08:50.156Z,27.48
2022-08-02T03:10:00.070Z,27.43
2022-08-02T03:11:10.870Z,27.36
2022-08-02T03:12:20.174Z,27.30
2022-08-02T03:13:33.284Z,27.27
2022-08-02T03:14:46.521Z,27.23
2022-08-02T03:15:59.242Z,27.18
2022-08-02T03:17:07.270Z,27.13
2022-08-02T03:18:37.464Z,27.10
2022-08-02T03:19:48.242Z,27.05
2022-08-02T03:21:00.297Z,27.01
2022-08-02T03:22:13.394Z,26.95
2022-08-02T03:23:25.628Z,26.91
2022-08-02T03:24:34.444Z,26.87
2022-08-02T03:25:45.180Z,26.83
2022-08-02T03:26:54.143Z,26.80
2022-08-02T03:28:04.972Z,26.75
2022-08-02T03:29:13.643Z,26.72
2022-08-02T03:30:22.826Z,26.69
2022-08-02T03:31:32.708Z,26.65
2022-08-02T03:32:41.704Z,26.60
2022-08-02T03:33:50.997Z,26.54
2022-08-02T03:34:59.971Z,26.49
2022-08-02T03:36:14.142Z,26.45
2022-08-02T03:37:25.601Z,26.41
2022-08-02T03:38:35.418Z,26.37
2022-08-02T03:39:52.654Z,26.32
2022-08-02T03:41:04.100Z,26.27
2022-08-02T03:42:15.556Z,26.23
2022-08-02T03:43:28.698Z,26.18
2022-08-02T03:44:41.006Z,26.15
2022-08-02T03:45:50.253Z,26.12
2022-08-02T03:46:59.365Z,26.08
2022-08-02T03:48:30.570Z,26.05
2022-08-02T03:49:40.643Z,26.00
2022-08-02T03:50:50.575Z,25.95
2022-08-02T03:52:02.987Z,25.92
2022-08-02T03:53:19.945Z,25.89
2022-08-02T03:54:32.990Z,25.82
2022-08-02T03:55:44.160Z,25.78
2022-08-02T03:56:55.643Z,25.74
2022-08-02T03:58:06.531Z,25.71
2022-08-02T03:59:16.218Z,25.66
2022-08-02T04:00:25.189Z,25.62
2022-08-02T04:01:35.992Z,25.58
2022-08-02T04:02:44.103Z,25.53
2022-08-02T04:03:55.758Z,25.51
2022-08-02T04:05:04.765Z,25.48
2022-08-02T04:06:13.900Z,25.45
2022-08-02T04:08:34.328Z,25.40
2022-08-02T04:08:56.684Z,25.36
2022-08-02T04:10:05.272Z,25.34
2022-08-02T04:11:31.372Z,25.32
2022-08-02T04:12:40.495Z,25.29
2022-08-02T04:13:48.920Z,25.26
2022-08-02T04:14:59.650Z,25.25
2022-08-02T04:16:16.459Z,25.24
2022-08-02T04:17:24.858Z,25.23
2022-08-02T04:18:42.272Z,25.21
2022-08-02T04:20:10.184Z,25.20
2022-08-02T04:21:19.230Z,25.17
2022-08-02T04:22:51.811Z,25.17
2022-08-02T04:24:02.893Z,25.15
2022-08-02T04:25:17.251Z,25.13
2022-08-02T04:26:28.284Z,25.10
2022-08-02T04:27:49.877Z,25.08
2022-08-02T04:29:01.985Z,25.08
2022-08-02T04:30:12.854Z,25.06
2022-08-02T04:31:20.817Z,25.05
2022-08-02T04:32:29.906Z,25.02
2022-08-02T04:33:40.044Z,25.00
2022-08-02T04:35:17.751Z,24.99
2022-08-02T04:36:31.444Z,24.97
2022-08-02T04:38:05.774Z,24.95
2022-08-02T04:39:09.906Z,24.93
2022-08-02T04:40:19.579Z,24.91
2022-08-02T04:41:52.312Z,24.88
2022-08-02T04:43:05.665Z,24.84
2022-08-02T04:44:15.013Z,24.82
2022-08-02T04:45:24.411Z,24.80
2022-08-02T04:46:32.569Z,24.78
2022-08-02T04:48:02.549Z,24.75
2022-08-02T04:49:12.219Z,24.72
2022-08-02T04:50:22.644Z,24.71
2022-08-02T04:51:38.617Z,24.68
2022-08-02T04:52:47.151Z,24.65
2022-08-02T04:54:03.599Z,24.62
2022-08-02T04:55:20.217Z,24.60
2022-08-02T04:56:30.188Z,24.57
2022-08-02T04:58:03.513Z,24.57
2022-08-02T04:59:14.133Z,24.54
2022-08-02T05:00:22.834Z,24.53
2022-08-02T05:01:33.016Z,24.51
2022-08-02T05:02:40.862Z,24.50
2022-08-02T05:03:51.398Z,24.49
2022-08-02T05:05:03.754Z,24.49
2022-08-02T05:06:19.194Z,24.48
2022-08-02T05:07:29.512Z,24.46
2022-08-02T05:08:45.496Z,24.44
2022-08-02T05:10:05.346Z,24.43
2022-08-02T05:11:13.838Z,24.43
2022-08-02T05:12:26.893Z,24.41
2022-08-02T05:13:58.880Z,24.40
2022-08-02T05:15:09.179Z,24.38
2022-08-02T05:16:21.489Z,24.36
2022-08-02T05:17:39.931Z,24.34
2022-08-02T05:18:56.855Z,24.32
2022-08-02T05:20:10.007Z,24.30
2022-08-02T05:21:18.455Z,24.29
2022-08-02T05:22:28.512Z,24.27
2022-08-02T05:23:39.942Z,24.26
2022-08-02T05:24:47.571Z,24.25
2022-08-02T05:25:58.563Z,24.23
2022-08-02T05:27:17.160Z,24.23
2022-08-02T05:28:33.971Z,24.21
2022-08-02T05:29:53.077Z,24.19
2022-08-02T05:31:05.682Z,24.19
2022-08-02T05:32:23.794Z,24.17
2022-08-02T05:33:33.472Z,24.15
2022-08-02T05:34:43.094Z,24.14
2022-08-02T05:35:53.947Z,24.13
2022-08-02T05:37:06.165Z,24.12
2022-08-02T05:38:19.831Z,24.09
2022-08-02T05:39:36.133Z,24.08
2022-08-02T05:41:04.815Z,24.05
2022-08-02T05:42:15.765Z,24.03
2022-08-02T05:43:25.047Z,24.00
2022-08-02T05:44:35.623Z,23.98
2022-08-02T05:45:45.608Z,23.97
2022-08-02T05:46:53.461Z,23.95
2022-08-02T05:48:03.943Z,23.93
2022-08-02T05:49:12.719Z,23.91
2022-08-02T05:50:25.598Z,23.89
2022-08-02T05:51:48.226Z,23.86
2022-08-02T05:53:02.727Z,23.84
2022-08-02T05:54:41.233Z,23.82
2022-08-02T05:56:04.242Z,23.76
2022-08-02T05:57:29.526Z,23.73
2022-08-02T05:59:00.972Z,23.70
2022-08-02T06:00:15.546Z,23.68
2022-08-02T06:01:45.522Z,23.65
2022-08-02T06:03:05.909Z,23.61
2022-08-02T06:04:19.963Z,23.58
2022-08-02T06:05:31.130Z,23.56
2022-08-02T06:06:39.872Z,23.55
2022-08-02T06:07:50.880Z,23.53
2022-08-02T06:09:05.440Z,23.51
2022-08-02T06:10:16.289Z,23.49
2022-08-02T06:11:26.460Z,23.47
2022-08-02T06:12:36.124Z,23.46
2022-08-02T06:13:49.421Z,23.44
2022-08-02T06:14:59.905Z,23.44
2022-08-02T06:16:14.102Z,23.42
2022-08-02T06:17:24.748Z,23.39
2022-08-02T06:18:35.988Z,23.37
2022-08-02T06:19:51.681Z,23.34
2022-08-02T06:22:32.746Z,23.29
2022-08-02T06:22:39.662Z,23.24
2022-08-02T06:23:57.393Z,23.21
2022-08-02T06:25:11.648Z,23.19
2022-08-02T06:26:40.282Z,23.17
2022-08-02T06:27:48.313Z,23.15
2022-08-02T06:29:00.118Z,23.12
2022-08-02T06:30:10.655Z,23.10
2022-08-02T06:31:19.536Z,23.08
2022-08-02T06:32:31.022Z,23.06
2022-08-02T06:33:41.262Z,23.03
2022-08-02T06:34:50.056Z,23.01
2022-08-02T06:36:11.996Z,22.99
2022-08-02T06:37:46.028Z,22.98
2022-08-02T06:39:08.610Z,22.94
2022-08-02T06:40:35.638Z,22.91
2022-08-02T06:41:44.563Z,22.89
2022-08-02T06:43:15.435Z,22.86
2022-08-02T06:44:47.659Z,22.85
2022-08-02T06:45:57.175Z,22.81
2022-08-02T06:47:29.435Z,22.78
2022-08-02T06:48:39.521Z,22.76
2022-08-02T06:49:51.860Z,22.74
2022-08-02T06:51:07.017Z,22.72
2022-08-02T06:52:18.969Z,22.70
2022-08-02T06:53:29.947Z,22.69
2022-08-02T06:54:40.578Z,22.67
2022-08-02T06:55:50.572Z,22.64
2022-08-02T06:57:00.223Z,22.64
2022-08-02T06:58:09.406Z,22.63
2022-08-02T06:59:17.551Z,22.62
2022-08-02T07:00:31.183Z,22.59
2022-08-02T07:01:41.195Z,22.57
2022-08-02T07:02:49.887Z,22.56
2022-08-02T07:03:58.457Z,22.55
2022-08-02T07:05:10.448Z,22.53
2022-08-02T07:06:18.943Z,22.51
2022-08-02T07:07:29.963Z,22.49
2022-08-02T07:08:39.951Z,22.48
2022-08-02T07:09:56.291Z,22.47
2022-08-02T07:11:11.052Z,22.44
2022-08-02T07:12:22.990Z,22.42
2022-08-02T07:13:35.673Z,22.41
2022-08-02T07:14:48.131Z,22.38
2022-08-02T07:15:58.925Z,22.36
2022-08-02T07:17:07.215Z,22.34
2022-08-02T07:18:17.475Z,22.32
2022-08-02T07:19:37.743Z,22.29
2022-08-02T07:20:50.120Z,22.27
2022-08-02T07:22:01.794Z,22.24
2022-08-02T07:23:11.865Z,22.22
2022-08-02T07:24:20.067Z,22.21
2022-08-02T07:26:01.751Z,22.18
2022-08-02T07:27:11.143Z,22.16
2022-08-02T07:28:24.467Z,22.15
2022-08-02T07:29:33.224Z,22.13
2022-08-02T07:30:55.064Z,22.12
2022-08-02T07:32:05.339Z,22.10
2022-08-02T07:33:38.851Z,22.10
2022-08-02T07:34:42.597Z,22.08
2022-08-02T07:35:52.402Z,22.06
2022-08-02T07:37:03.724Z,22.05
2022-08-02T07:38:14.861Z,22.03
2022-08-02T07:39:23.867Z,22.01
2022-08-02T07:40:36.604Z,21.98
2022-08-02T07:41:47.921Z,21.95
2022-08-02T07:43:03.321Z,21.93
2022-08-02T07:44:15.922Z,21.92
2022-08-02T07:45:24.596Z,21.90
2022-08-02T07:46:34.995Z,21.89
2022-08-02T07:47:46.533Z,21.88
2022-08-02T07:48:56.931Z,21.88
2022-08-02T07:50:08.337Z,21.86
2022-08-02T07:51:17.602Z,21.85
2022-08-02T07:52:26.922Z,21.84
2022-08-02T07:53:51.200Z,21.82
2022-08-02T07:55:04.214Z,21.81
2022-08-02T07:56:12.976Z,21.80
2022-08-02T07:57:22.833Z,21.79
2022-08-02T07:58:32.461Z,21.79
2022-08-02T07:59:41.039Z,21.77
2022-08-02T08:00:49.540Z,21.77
2022-08-02T08:01:59.984Z,21.78
2022-08-02T08:03:09.168Z,21.76
2022-08-02T08:04:18.247Z,21.75
2022-08-02T08:05:27.366Z,21.75
2022-08-02T08:06:37.645Z,21.74
2022-08-02T08:07:45.814Z,21.73
2022-08-02T08:08:53.792Z,21.73
2022-08-02T08:10:03.517Z,21.72
2022-08-02T08:11:11.123Z,21.72
2022-08-02T08:12:20.342Z,21.71
2022-08-02T08:13:30.345Z,21.70
2022-08-02T08:14:40.113Z,21.70
2022-08-02T08:15:52.477Z,21.69
2022-08-02T08:17:03.123Z,21.69
2022-08-02T08:18:13.870Z,21.69
2022-08-02T08:19:51.527Z,21.68
2022-08-02T08:20:52.084Z,21.65
2022-08-02T08:22:03.515Z,21.62
2022-08-02T08:23:11.234Z,21.59
2022-08-02T08:24:18.867Z,21.57
2022-08-02T08:25:30.649Z,21.56
2022-08-02T08:26:48.851Z,21.53
2022-08-02T08:28:00.659Z,21.49
2022-08-02T08:29:09.185Z,21.47
2022-08-02T08:30:18.860Z,21.46
2022-08-02T08:31:30.621Z,21.43
2022-08-02T08:32:40.306Z,21.42
2022-08-02T08:33:49.834Z,21.40
2022-08-02T08:34:59.987Z,21.40
2022-08-02T08:36:10.113Z,21.40
2022-08-02T08:37:18.880Z,21.39
2022-08-02T08:38:26.832Z,21.39
2022-08-02T08:39:37.198Z,21.38
2022-08-02T08:41:06.010Z,21.37
2022-08-02T08:42:18.723Z,21.36
2022-08-02T08:43:30.793Z,21.35
2022-08-02T08:44:39.739Z,21.36
2022-08-02T08:45:55.936Z,21.35
2022-08-02T08:47:11.321Z,21.33
2022-08-02T08:48:30.576Z,21.33
2022-08-02T08:49:52.664Z,21.32
2022-08-02T08:51:09.898Z,21.30
2022-08-02T08:52:18.719Z,21.30
2022-08-02T08:53:36.332Z,21.28
2022-08-02T08:54:48.451Z,21.28
2022-08-02T08:55:59.313Z,21.28
2022-08-02T08:57:13.692Z,21.26
2022-08-02T08:58:24.845Z,21.25
2022-08-02T08:59:39.254Z,21.22
2022-08-02T09:00:47.895Z,21.21
2022-08-02T09:01:58.999Z,21.20
2022-08-02T09:03:33.829Z,21.18
2022-08-02T09:04:54.692Z,21.16
2022-08-02T09:06:06.643Z,21.14
2022-08-02T09:07:14.576Z,21.15
2022-08-02T09:08:24.661Z,21.16
2022-08-02T09:09:38.604Z,21.16
2022-08-02T09:10:50.607Z,21.16
2022-08-02T09:12:27.661Z,21.18
2022-08-02T09:13:46.085Z,21.19
2022-08-02T09:14:56.435Z,21.20
2022-08-02T09:16:11.358Z,21.22
2022-08-02T09:17:23.637Z,21.25
2022-08-02T09:18:47.777Z,21.26
2022-08-02T09:20:10.687Z,21.26
2022-08-02T09:21:19.947Z,21.29
2022-08-02T09:22:30.961Z,21.32
2022-08-02T09:23:42.265Z,21.33
2022-08-02T09:24:52.082Z,21.36
2022-08-02T09:26:11.673Z,21.37
2022-08-02T09:27:21.493Z,21.38
2022-08-02T09:28:33.438Z,21.39
2022-08-02T09:30:06.066Z,21.40
2022-08-02T09:31:16.483Z,21.40
2022-08-02T09:32:25.403Z,21.39
2022-08-02T09:33:36.657Z,21.41
2022-08-02T09:34:53.912Z,21.41
2022-08-02T09:36:08.153Z,21.41
2022-08-02T09:37:27.395Z,21.43
2022-08-02T09:38:38.430Z,21.43
2022-08-02T09:39:48.747Z,21.44
2022-08-02T09:41:08.910Z,21.44
2022-08-02T09:42:21.506Z,21.43
2022-08-02T09:43:52.409Z,21.46
2022-08-02T09:45:13.720Z,21.44
2022-08-02T09:46:31.021Z,21.41
2022-08-02T09:47:41.553Z,21.42
2022-08-02T09:49:04.918Z,21.41
2022-08-02T09:50:15.097Z,21.40
2022-08-02T09:51:25.747Z,21.41
2022-08-02T09:52:37.009Z,21.42
2022-08-02T09:54:01.993Z,21.44
2022-08-02T09:55:17.922Z,21.44
2022-08-02T09:56:35.616Z,21.42
2022-08-02T09:57:51.220Z,21.42
2022-08-02T09:59:01.648Z,21.40
2022-08-02T10:00:23.295Z,21.39
2022-08-02T10:01:50.861Z,21.36
2022-08-02T10:03:20.715Z,21.34
2022-08-02T10:04:52.953Z,21.30
2022-08-02T10:06:03.943Z,21.29
2022-08-02T10:07:11.517Z,21.28
2022-08-02T10:08:20.742Z,21.27
2022-08-02T10:09:31.118Z,21.25
2022-08-02T10:10:41.197Z,21.25
2022-08-02T10:11:52.283Z,21.24
2022-08-02T10:13:01.175Z,21.24
2022-08-02T10:14:12.211Z,21.22
2022-08-02T10:15:24.582Z,21.20
2022-08-02T10:16:38.351Z,21.18
2022-08-02T10:17:46.561Z,21.15
2022-08-02T10:19:06.369Z,21.14
2022-08-02T10:20:14.859Z,21.12
2022-08-02T10:21:46.314Z,21.11
2022-08-02T10:23:00.565Z,21.08
2022-08-02T10:24:20.450Z,21.06
2022-08-02T10:25:30.646Z,21.04
2022-08-02T10:26:41.107Z,21.02
2022-08-02T10:28:04.763Z,21.00
2022-08-02T10:29:19.418Z,21.00
2022-08-02T10:30:32.118Z,20.98
2022-08-02T10:31:47.248Z,20.96
2022-08-02T10:32:56.012Z,20.93
2022-08-02T10:34:06.547Z,20.90
2022-08-02T10:35:25.215Z,20.87
2022-08-02T10:36:41.927Z,20.82
2022-08-02T10:37:53.672Z,20.80
2022-08-02T10:39:01.956Z,20.80
2022-08-02T10:40:25.822Z,20.79
2022-08-02T10:42:05.048Z,20.80
2022-08-02T10:43:13.761Z,20.80
2022-08-02T10:44:34.174Z,20.80
2022-08-02T10:45:44.164Z,20.81
2022-08-02T10:47:15.229Z,20.80
2022-08-02T10:48:23.415Z,20.80
2022-08-02T10:49:40.924Z,20.80
2022-08-02T10:50:50.437Z,20.81
2022-08-02T10:52:09.344Z,20.80
2022-08-02T10:53:31.207Z,20.78
2022-08-02T10:54:46.006Z,20.77
2022-08-02T10:55:55.620Z,20.76
2022-08-02T10:57:07.108Z,20.75
2022-08-02T10:58:29.937Z,20.74
2022-08-02T10:59:40.946Z,20.72
2022-08-02T11:00:48.763Z,20.71
2022-08-02T11:02:03.754Z,20.70
2022-08-02T11:03:31.217Z,20.68
2022-08-02T11:04:39.925Z,20.68
2022-08-02T11:06:09.055Z,20.67
2022-08-02T11:07:44.506Z,20.64
2022-08-02T11:09:36.125Z,20.62
2022-08-02T11:10:45.531Z,20.59
2022-08-02T11:12:13.366Z,20.58
2022-08-02T11:13:22.282Z,20.57
2022-08-02T11:14:32.054Z,20.57
2022-08-02T11:15:53.358Z,20.56
2022-08-02T11:17:05.139Z,20.56
2022-08-02T11:18:16.820Z,20.56
2022-08-02T11:19:28.982Z,20.55
2022-08-02T11:20:41.180Z,20.54
2022-08-02T11:22:12.471Z,20.54
2022-08-02T11:23:44.813Z,20.51
2022-08-02T11:24:56.352Z,20.49
2022-08-02T11:26:11.312Z,20.48
2022-08-02T11:27:24.384Z,20.48
2022-08-02T11:28:34.386Z,20.47
2022-08-02T11:29:47.138Z,20.48
2022-08-02T11:31:01.563Z,20.48
2022-08-02T11:32:31.203Z,20.47
2022-08-02T11:33:40.915Z,20.48
2022-08-02T11:34:49.905Z,20.49
2022-08-02T11:36:09.144Z,20.50
2022-08-02T11:37:34.237Z,20.51
2022-08-02T11:38:44.639Z,20.52
2022-08-02T11:39:55.146Z,20.53
2022-08-02T11:41:09.706Z,20.54
2022-08-02T11:42:20.641Z,20.55
2022-08-02T11:43:32.504Z,20.54
2022-08-02T11:44:44.866Z,20.53
2022-08-02T11:45:54.282Z,20.52
2022-08-02T11:47:04.973Z,20.51
2022-08-02T11:48:14.506Z,20.52
2022-08-02T11:49:24.391Z,20.53
2022-08-02T11:50:33.847Z,20.54
2022-08-02T11:52:06.997Z,20.54
2022-08-02T11:53:18.307Z,20.55
2022-08-02T11:54:28.431Z,20.55
2022-08-02T11:55:39.344Z,20.56
2022-08-02T11:56:48.363Z,20.56
2022-08-02T11:58:11.327Z,20.57
2022-08-02T11:59:19.345Z,20.58
2022-08-02T12:00:30.614Z,20.59
2022-08-02T12:01:45.138Z,20.59
2022-08-02T12:02:55.642Z,20.59
2022-08-02T12:04:07.480Z,20.58
2022-08-02T12:05:20.339Z,20.57
2022-08-02T12:06:33.260Z,20.55
2022-08-02T12:07:45.964Z,20.53
2022-08-02T12:09:02.523Z,20.52
2022-08-02T12:10:16.896Z,20.51
2022-08-02T12:11:39.051Z,20.51
2022-08-02T12:13:04.325Z,20.50
2022-08-02T12:14:12.763Z,20.50
2022-08-02T12:15:43.564Z,20.50
2022-08-02T12:17:10.836Z,20.49
2022-08-02T12:18:39.408Z,20.48
2022-08-02T12:19:49.920Z,20.46
2022-08-02T12:20:58.032Z,20.45
2022-08-02T12:22:33.639Z,20.43
2022-08-02T12:24:00.600Z,20.41
2022-08-02T12:25:34.694Z,20.40
2022-08-02T12:26:49.093Z,20.40
2022-08-02T12:27:57.890Z,20.39
2022-08-02T12:29:07.538Z,20.39
2022-08-02T12:30:27.514Z,20.38
2022-08-02T12:31:55.696Z,20.36
2022-08-02T12:33:13.708Z,20.35
2022-08-02T12:34:31.493Z,20.32
2022-08-02T12:35:41.381Z,20.31
2022-08-02T12:37:12.929Z,20.29
2022-08-02T12:38:21.793Z,20.29
2022-08-02T12:39:40.024Z,20.29
2022-08-02T12:40:48.558Z,20.28
2022-08-02T12:42:01.674Z,20.26
2022-08-02T12:43:18.902Z,20.26
2022-08-02T12:44:27.141Z,20.25
2022-08-02T12:45:52.390Z,20.24
2022-08-02T12:47:13.693Z,20.24
2022-08-02T12:48:52.109Z,20.25
2022-08-02T12:50:23.936Z,20.23
2022-08-02T12:51:51.203Z,20.23
2022-08-02T12:53:10.904Z,20.21
2022-08-02T12:54:31.349Z,20.20
2022-08-02T12:56:01.956Z,20.18
2022-08-02T12:57:15.169Z,20.17
2022-08-02T12:58:22.940Z,20.17
2022-08-02T12:59:41.765Z,20.17
2022-08-02T13:01:06.544Z,20.17
2022-08-02T13:02:18.425Z,20.16
2022-08-02T13:04:07.788Z,20.15
2022-08-02T13:04:55.950Z,20.14
2022-08-02T13:06:22.949Z,20.14
2022-08-02T13:07:35.002Z,20.17
2022-08-02T13:08:47.824Z,20.19
2022-08-02T13:10:02.703Z,20.22
2022-08-02T13:11:14.572Z,20.24
2022-08-02T13:12:22.585Z,20.25
2022-08-02T13:13:31.958Z,20.27
2022-08-02T13:14:44.115Z,20.29
2022-08-02T13:15:54.188Z,20.30
2022-08-02T13:17:07.458Z,20.31
2022-08-02T13:18:16.241Z,20.34
2022-08-02T13:19:25.320Z,20.35
2022-08-02T13:20:43.200Z,20.35
2022-08-02T13:22:02.474Z,20.35
2022-08-02T13:23:21.215Z,20.35
2022-08-02T13:24:40.617Z,20.36
2022-08-02T13:26:02.837Z,20.36
2022-08-02T13:27:12.314Z,20.36
2022-08-02T13:28:21.594Z,20.37
2022-08-02T13:29:32.038Z,20.37
2022-08-02T13:30:42.064Z,20.37
2022-08-02T13:31:51.352Z,20.37
2022-08-02T13:33:01.233Z,20.37
2022-08-02T13:34:11.732Z,20.37
2022-08-02T13:35:19.981Z,20.37
2022-08-02T13:36:29.120Z,20.38
2022-08-02T13:37:38.754Z,20.38
2022-08-02T13:38:49.512Z,20.40
2022-08-02T13:40:20.576Z,20.40
2022-08-02T13:41:35.015Z,20.43
2022-08-02T13:42:42.975Z,20.51
2022-08-02T13:43:55.923Z,20.68
2022-08-02T13:45:13.907Z,20.95
2022-08-02T13:46:29.109Z,21.23
2022-08-02T13:48:04.001Z,21.48
2022-08-02T13:49:16.306Z,21.75
2022-08-02T13:50:27.386Z,21.98
2022-08-02T13:51:39.523Z,22.17
2022-08-02T13:52:49.106Z,22.27
2022-08-02T13:54:00.031Z,22.29
2022-08-02T13:55:12.457Z,22.30
2022-08-02T13:56:35.517Z,22.28
2022-08-02T13:57:53.289Z,22.29
2022-08-02T13:59:54.109Z,22.33
2022-08-02T14:00:35.684Z,22.37
2022-08-02T14:01:45.932Z,22.42
2022-08-02T14:02:54.040Z,22.53
2022-08-02T14:04:08.965Z,22.75
2022-08-02T14:05:17.863Z,23.10
2022-08-02T14:06:46.892Z,23.59
2022-08-02T14:07:58.715Z,24.01
2022-08-02T14:09:15.786Z,24.36
2022-08-02T14:10:27.604Z,24.66
2022-08-02T14:11:41.809Z,24.92
2022-08-02T14:12:56.789Z,25.17
2022-08-02T14:14:15.988Z,25.41
2022-08-02T14:15:30.263Z,25.57
2022-08-02T14:16:40.934Z,25.66
2022-08-02T14:17:52.014Z,25.82
2022-08-02T14:19:01.700Z,26.00
2022-08-02T14:20:17.988Z,26.13
2022-08-02T14:21:30.685Z,26.23
2022-08-02T14:22:56.263Z,26.43
2022-08-02T14:24:04.754Z,26.56
2022-08-02T14:25:13.689Z,26.66
2022-08-02T14:26:27.546Z,26.72
2022-08-02T14:27:39.706Z,26.82
2022-08-02T14:28:50.938Z,26.87
2022-08-02T14:30:04.842Z,26.91
2022-08-02T14:31:14.146Z,27.00
2022-08-02T14:32:22.290Z,27.04
2022-08-02T14:33:42.859Z,27.13
2022-08-02T14:34:51.315Z,27.17
2022-08-02T14:36:03.575Z,27.16
2022-08-02T14:37:13.464Z,27.13
2022-08-02T14:38:25.326Z,27.15
2022-08-02T14:39:59.791Z,27.16
2022-08-02T14:41:12.925Z,27.15
2022-08-02T14:42:22.297Z,27.15
2022-08-02T14:43:49.967Z,27.18
2022-08-02T14:44:58.830Z,27.37
2022-08-02T14:46:07.537Z,27.52
2022-08-02T14:47:15.894Z,27.63
2022-08-02T14:48:25.239Z,27.63
2022-08-02T14:49:35.455Z,27.71
2022-08-02T14:50:50.539Z,27.71
2022-08-02T14:52:01.573Z,27.76
2022-08-02T14:53:12.355Z,27.90
2022-08-02T14:54:28.219Z,28.10
2022-08-02T14:55:41.767Z,28.45
2022-08-02T14:56:50.609Z,28.65
2022-08-02T14:58:02.365Z,28.70
2022-08-02T14:59:11.629Z,28.65
2022-08-02T15:00:21.675Z,28.61
2022-08-02T15:01:30.322Z,28.65
2022-08-02T15:02:41.521Z,28.68
2022-08-02T15:03:52.503Z,28.83
2022-08-02T15:05:01.139Z,29.03
2022-08-02T15:06:11.765Z,29.27
2022-08-02T15:07:19.982Z,29.45
2022-08-02T15:08:29.344Z,29.60
2022-08-02T15:09:39.776Z,29.82
2022-08-02T15:10:50.801Z,30.09
2022-08-02T15:12:05.506Z,30.32
2022-08-02T15:13:14.952Z,30.23
2022-08-02T15:14:26.247Z,30.01
2022-08-02T15:15:42.181Z,29.92
2022-08-02T15:16:59.230Z,29.94
2022-08-02T15:18:10.673Z,30.17
2022-08-02T15:19:19.552Z,30.46
2022-08-02T15:20:32.060Z,30.73
2022-08-02T15:21:54.532Z,30.98
2022-08-02T15:23:09.085Z,31.10
2022-08-02T15:24:20.265Z,31.03
2022-08-02T15:25:28.563Z,30.99
2022-08-02T15:26:39.687Z,30.91
2022-08-02T15:27:50.681Z,30.82
2022-08-02T15:28:59.439Z,30.70
2022-08-02T15:30:10.589Z,30.58
2022-08-02T15:31:22.457Z,30.63
2022-08-02T15:32:53.417Z,30.83
2022-08-02T15:34:03.104Z,30.85
2022-08-02T15:35:13.045Z,30.81
2022-08-02T15:36:24.324Z,30.72
2022-08-02T15:37:37.155Z,30.61
2022-08-02T15:38:51.681Z,30.60
2022-08-02T15:40:02.549Z,30.55
2022-08-02T15:41:12.539Z,30.50
2022-08-02T15:42:20.422Z,30.64
2022-08-02T15:44:00.740Z,30.61
2022-08-02T15:45:13.317Z,30.47
2022-08-02T15:46:24.467Z,30.42
2022-08-02T15:47:50.509Z,30.44
2022-08-02T15:49:00.020Z,30.51
2022-08-02T15:50:08.472Z,30.54
2022-08-02T15:51:19.084Z,30.60
2022-08-02T15:52:29.648Z,30.57
2022-08-02T15:53:45.014Z,30.62
2022-08-02T15:55:07.407Z,30.67
2022-08-02T15:56:24.140Z,30.65